Bearcreek, MT (59007)

6:46 PM MST on February 10, 2016 (GMT -0700)
Old Town | | Change Station
CLOSE
Current Station
Personal Weather Station
Location: Red Lodge, MT
Elevation: 5594 ft
Nearby Weather Stations

Elev 5594 ft 45.18 °N, 109.25 °W | Updated 6 minutes ago

Clear
Clear
39.9 °F
Feels Like 40 °F
N
1.7
Wind Variable Wind from NW

Today
High -- | Low -- °F
--% Chance of Precip.
Yesterday
High -- | Low -- °F
Precip. -- in
Pressure 30.16 in
Visibility 10.0 miles
Clouds Clear
Windchill 40 °F
Dew Point 25 °F
Humidity 55%
Rainfall 0.00 in
Snow Depth Not available.
7:25 AM 5:36 PM
Waxing Crescent, 8% visible
METAR KCOD 110135Z AUTO 25016G25KT 10SM CLR 12/M07 A3016 RMK AO1
Pressure 30.16 in
Visibility 10.0 miles
Clouds Clear
Windchill 40 °F
Dew Point 25 °F
Humidity 55%
Rainfall 0.00 in
Snow Depth Not available.
7:25 AM 5:36 PM
Waxing Crescent, 8% visible
METAR KCOD 110135Z AUTO 25016G25KT 10SM CLR 12/M07 A3016 RMK AO1

10-Day Weather Forecast

Almanac

Astronomy

Feb. 10, 2016 Rise Set
Actual Time
Civil Twilight
Nautical Twilight
Astronomical Twilight
Moon
Length of Visible Light
Length of Day
Tomorrow will be .
, % of the Moon is Illuminated

Today's Extremes

State Highs State Lows

Community

WunderPhotos

Upload Photos

1,891,970 photos uploaded!

WunderBlog® & News

Nearby

Air Quality

  Air Quality AQ Index Pollutant
Not available.

Snow Depth

Station Depth Elevation

Earthquake Activity

City Distance Mag. Time & Date
Minimum magnitude displayed is 2.5.

Coastal Water Temperatures

Place Temperature

Stations

Nearby Weather Stations

Station Location Temp. Windchill Dew Point Humidity Wind Precip. Elev Updated Type
                   

Watches & Warnings

There are currently no watches in effect.